sensor_id;sensor_type;location;lat;lon;timestamp;P1;durP1;ratioP1;P2;durP2;ratioP2
769;SDS011;368;48.698;9.116;2023-12-20T00:01:40;1.47;;;1.33;;
769;SDS011;368;48.698;9.116;2023-12-20T00:04:06;0.80;;;0.80;;
769;SDS011;368;48.698;9.116;2023-12-20T00:06:33;1.30;;;1.20;;
769;SDS011;368;48.698;9.116;2023-12-20T00:09:00;1.33;;;1.10;;
769;SDS011;368;48.698;9.116;2023-12-20T00:11:27;1.37;;;1.27;;
769;SDS011;368;48.698;9.116;2023-12-20T00:13:53;1.57;;;1.20;;
769;SDS011;368;48.698;9.116;2023-12-20T00:16:21;1.43;;;1.17;;
769;SDS011;368;48.698;9.116;2023-12-20T00:18:48;1.30;;;0.97;;
769;SDS011;368;48.698;9.116;2023-12-20T00:21:15;1.40;;;1.30;;
769;SDS011;368;48.698;9.116;2023-12-20T00:23:42;0.80;;;0.80;;
769;SDS011;368;48.698;9.116;2023-12-20T00:26:08;1.30;;;1.20;;
769;SDS011;368;48.698;9.116;2023-12-20T00:28:35;1.40;;;1.10;;
769;SDS011;368;48.698;9.116;2023-12-20T00:31:02;1.50;;;1.03;;
769;SDS011;368;48.698;9.116;2023-12-20T00:33:31;2.30;;;1.60;;
769;SDS011;368;48.698;9.116;2023-12-20T00:35:57;1.17;;;0.90;;
769;SDS011;368;48.698;9.116;2023-12-20T00:38:24;1.10;;;1.03;;
769;SDS011;368;48.698;9.116;2023-12-20T00:40:51;1.30;;;1.20;;
769;SDS011;368;48.698;9.116;2023-12-20T00:43:18;0.90;;;0.90;;
769;SDS011;368;48.698;9.116;2023-12-20T00:45:43;0.83;;;0.80;;
769;SDS011;368;48.698;9.116;2023-12-20T00:48:11;2.43;;;0.83;;
769;SDS011;368;48.698;9.116;2023-12-20T00:50:39;1.37;;;0.80;;
769;SDS011;368;48.698;9.116;2023-12-20T00:53:05;1.73;;;0.90;;
769;SDS011;368;48.698;9.116;2023-12-20T00:55:32;1.30;;;1.20;;
769;SDS011;368;48.698;9.116;2023-12-20T00:57:59;1.23;;;0.70;;
769;SDS011;368;48.698;9.116;2023-12-20T01:00:26;1.63;;;1.07;;
769;SDS011;368;48.698;9.116;2023-12-20T01:02:52;0.90;;;0.90;;
769;SDS011;368;48.698;9.116;2023-12-20T01:05:19;1.53;;;0.87;;
769;SDS011;368;48.698;9.116;2023-12-20T01:07:49;1.10;;;0.90;;
769;SDS011;368;48.698;9.116;2023-12-20T01:10:16;2.40;;;1.30;;
769;SDS011;368;48.698;9.116;2023-12-20T01:12:43;0.80;;;0.80;;
769;SDS011;368;48.698;9.116;2023-12-20T01:15:10;0.80;;;0.80;;
769;SDS011;368;48.698;9.116;2023-12-20T01:17:36;1.10;;;1.00;;
769;SDS011;368;48.698;9.116;2023-12-20T01:20:03;1.20;;;0.80;;
769;SDS011;368;48.698;9.116;2023-12-20T01:22:31;1.33;;;1.10;;
769;SDS011;368;48.698;9.116;2023-12-20T01:25:02;1.30;;;1.20;;
769;SDS011;368;48.698;9.116;2023-12-20T01:27:29;1.10;;;1.00;;
769;SDS011;368;48.698;9.116;2023-12-20T01:29:56;1.40;;;0.90;;
769;SDS011;368;48.698;9.116;2023-12-20T01:32:22;1.20;;;0.90;;
769;SDS011;368;48.698;9.116;2023-12-20T01:34:49;1.27;;;1.00;;
769;SDS011;368;48.698;9.116;2023-12-20T01:37:16;1.50;;;0.90;;
769;SDS011;368;48.698;9.116;2023-12-20T01:39:43;1.13;;;1.10;;
769;SDS011;368;48.698;9.116;2023-12-20T01:42:11;1.20;;;1.10;;
769;SDS011;368;48.698;9.116;2023-12-20T01:44:38;1.07;;;1.00;;
769;SDS011;368;48.698;9.116;2023-12-20T01:47:04;1.27;;;1.17;;
769;SDS011;368;48.698;9.116;2023-12-20T01:49:31;1.37;;;1.27;;
769;SDS011;368;48.698;9.116;2023-12-20T01:51:59;1.43;;;1.30;;
769;SDS011;368;48.698;9.116;2023-12-20T01:54:25;0.93;;;0.90;;
769;SDS011;368;48.698;9.116;2023-12-20T01:56:52;1.10;;;1.00;;
769;SDS011;368;48.698;9.116;2023-12-20T01:59:21;1.33;;;1.00;;
769;SDS011;368;48.698;9.116;2023-12-20T02:01:48;1.20;;;1.00;;
769;SDS011;368;48.698;9.116;2023-12-20T02:04:14;1.27;;;1.00;;
769;SDS011;368;48.698;9.116;2023-12-20T02:06:42;2.97;;;1.37;;
769;SDS011;368;48.698;9.116;2023-12-20T02:09:09;1.37;;;1.27;;
769;SDS011;368;48.698;9.116;2023-12-20T02:11:36;1.13;;;1.03;;
769;SDS011;368;48.698;9.116;2023-12-20T02:14:04;1.73;;;0.93;;
769;SDS011;368;48.698;9.116;2023-12-20T02:16:32;1.70;;;1.50;;
769;SDS011;368;48.698;9.116;2023-12-20T02:18:58;1.70;;;1.07;;
769;SDS011;368;48.698;9.116;2023-12-20T02:21:31;0.80;;;0.80;;
769;SDS011;368;48.698;9.116;2023-12-20T02:23:59;1.40;;;1.30;;
769;SDS011;368;48.698;9.116;2023-12-20T02:26:25;1.23;;;1.00;;
769;SDS011;368;48.698;9.116;2023-12-20T02:28:52;1.00;;;1.00;;
769;SDS011;368;48.698;9.116;2023-12-20T02:31:20;1.10;;;0.80;;
769;SDS011;368;48.698;9.116;2023-12-20T02:33:47;1.70;;;0.90;;
769;SDS011;368;48.698;9.116;2023-12-20T02:36:14;1.10;;;1.00;;
769;SDS011;368;48.698;9.116;2023-12-20T02:38:42;1.20;;;0.87;;
769;SDS011;368;48.698;9.116;2023-12-20T02:41:09;1.60;;;0.90;;
769;SDS011;368;48.698;9.116;2023-12-20T02:43:36;1.20;;;0.83;;
769;SDS011;368;48.698;9.116;2023-12-20T02:46:03;1.50;;;1.00;;
769;SDS011;368;48.698;9.116;2023-12-20T02:48:29;1.67;;;0.97;;
769;SDS011;368;48.698;9.116;2023-12-20T02:50:56;0.70;;;0.70;;
769;SDS011;368;48.698;9.116;2023-12-20T02:53:23;0.90;;;0.67;;
769;SDS011;368;48.698;9.116;2023-12-20T02:55:51;0.77;;;0.70;;
769;SDS011;368;48.698;9.116;2023-12-20T02:58:18;1.17;;;0.97;;
769;SDS011;368;48.698;9.116;2023-12-20T03:00:45;0.97;;;0.97;;
769;SDS011;368;48.698;9.116;2023-12-20T03:03:11;1.47;;;0.70;;
769;SDS011;368;48.698;9.116;2023-12-20T03:05:38;1.60;;;0.70;;
769;SDS011;368;48.698;9.116;2023-12-20T03:08:05;0.60;;;0.57;;
769;SDS011;368;48.698;9.116;2023-12-20T03:10:32;0.70;;;0.70;;
769;SDS011;368;48.698;9.116;2023-12-20T03:13:00;1.67;;;0.50;;
769;SDS011;368;48.698;9.116;2023-12-20T03:15:27;0.47;;;0.47;;
769;SDS011;368;48.698;9.116;2023-12-20T03:17:53;1.23;;;0.50;;
769;SDS011;368;48.698;9.116;2023-12-20T03:20:20;0.60;;;0.57;;
769;SDS011;368;48.698;9.116;2023-12-20T03:22:47;0.70;;;0.50;;
769;SDS011;368;48.698;9.116;2023-12-20T03:25:13;1.37;;;0.50;;
769;SDS011;368;48.698;9.116;2023-12-20T03:27:40;0.80;;;0.30;;
769;SDS011;368;48.698;9.116;2023-12-20T03:30:09;0.40;;;0.37;;
769;SDS011;368;48.698;9.116;2023-12-20T03:32:36;0.70;;;0.70;;
769;SDS011;368;48.698;9.116;2023-12-20T03:35:04;0.70;;;0.50;;
769;SDS011;368;48.698;9.116;2023-12-20T03:37:31;0.70;;;0.60;;
769;SDS011;368;48.698;9.116;2023-12-20T03:39:58;0.80;;;0.33;;
769;SDS011;368;48.698;9.116;2023-12-20T03:42:25;0.90;;;0.33;;
769;SDS011;368;48.698;9.116;2023-12-20T03:44:52;0.70;;;0.30;;
769;SDS011;368;48.698;9.116;2023-12-20T03:47:20;0.60;;;0.47;;
769;SDS011;368;48.698;9.116;2023-12-20T03:49:47;0.70;;;0.50;;
769;SDS011;368;48.698;9.116;2023-12-20T03:52:14;1.07;;;0.30;;
769;SDS011;368;48.698;9.116;2023-12-20T03:54:40;0.50;;;0.40;;
769;SDS011;368;48.698;9.116;2023-12-20T03:57:08;0.90;;;0.40;;
769;SDS011;368;48.698;9.116;2023-12-20T03:59:34;0.40;;;0.33;;
769;SDS011;368;48.698;9.116;2023-12-20T04:02:02;0.30;;;0.20;;
769;SDS011;368;48.698;9.116;2023-12-20T04:04:31;0.40;;;0.30;;
769;SDS011;368;48.698;9.116;2023-12-20T04:06:58;0.40;;;0.30;;
769;SDS011;368;48.698;9.116;2023-12-20T04:09:24;0.40;;;0.40;;
769;SDS011;368;48.698;9.116;2023-12-20T04:11:51;0.60;;;0.50;;
769;SDS011;368;48.698;9.116;2023-12-20T04:14:18;0.50;;;0.50;;
769;SDS011;368;48.698;9.116;2023-12-20T04:16:45;0.50;;;0.30;;
769;SDS011;368;48.698;9.116;2023-12-20T04:19:12;0.60;;;0.40;;
769;SDS011;368;48.698;9.116;2023-12-20T04:21:40;0.60;;;0.30;;
769;SDS011;368;48.698;9.116;2023-12-20T04:24:06;0.40;;;0.27;;
769;SDS011;368;48.698;9.116;2023-12-20T04:26:33;1.70;;;0.30;;
769;SDS011;368;48.698;9.116;2023-12-20T04:29:00;1.43;;;1.03;;
769;SDS011;368;48.698;9.116;2023-12-20T04:31:27;0.70;;;0.40;;
769;SDS011;368;48.698;9.116;2023-12-20T04:33:53;0.53;;;0.37;;
769;SDS011;368;48.698;9.116;2023-12-20T04:36:20;0.73;;;0.23;;
769;SDS011;368;48.698;9.116;2023-12-20T04:38:48;1.63;;;0.57;;
769;SDS011;368;48.698;9.116;2023-12-20T04:41:15;0.83;;;0.40;;
769;SDS011;368;48.698;9.116;2023-12-20T04:43:43;1.60;;;0.90;;
769;SDS011;368;48.698;9.116;2023-12-20T04:46:10;0.70;;;0.50;;
769;SDS011;368;48.698;9.116;2023-12-20T04:48:37;0.97;;;0.30;;
769;SDS011;368;48.698;9.116;2023-12-20T04:51:04;0.40;;;0.40;;
769;SDS011;368;48.698;9.116;2023-12-20T04:53:31;0.67;;;0.40;;
769;SDS011;368;48.698;9.116;2023-12-20T04:55:59;0.60;;;0.50;;
769;SDS011;368;48.698;9.116;2023-12-20T04:58:25;1.33;;;0.90;;
769;SDS011;368;48.698;9.116;2023-12-20T05:00:52;0.93;;;0.90;;
769;SDS011;368;48.698;9.116;2023-12-20T05:03:19;2.30;;;1.43;;
769;SDS011;368;48.698;9.116;2023-12-20T05:05:46;6.80;;;5.80;;
769;SDS011;368;48.698;9.116;2023-12-20T05:08:13;4.50;;;3.23;;
769;SDS011;368;48.698;9.116;2023-12-20T05:10:40;2.37;;;2.20;;
769;SDS011;368;48.698;9.116;2023-12-20T05:13:08;0.80;;;0.80;;
769;SDS011;368;48.698;9.116;2023-12-20T05:15:35;1.60;;;1.50;;
769;SDS011;368;48.698;9.116;2023-12-20T05:18:02;2.27;;;2.17;;
769;SDS011;368;48.698;9.116;2023-12-20T05:20:29;3.47;;;3.27;;
769;SDS011;368;48.698;9.116;2023-12-20T05:22:56;1.03;;;1.03;;
769;SDS011;368;48.698;9.116;2023-12-20T05:25:23;0.87;;;0.87;;
769;SDS011;368;48.698;9.116;2023-12-20T05:27:50;1.20;;;1.10;;
769;SDS011;368;48.698;9.116;2023-12-20T05:30:18;3.03;;;0.80;;
769;SDS011;368;48.698;9.116;2023-12-20T05:32:45;0.87;;;0.70;;
769;SDS011;368;48.698;9.116;2023-12-20T05:35:11;0.87;;;0.83;;
769;SDS011;368;48.698;9.116;2023-12-20T05:37:38;1.00;;;0.70;;
769;SDS011;368;48.698;9.116;2023-12-20T05:40:05;1.07;;;0.97;;
769;SDS011;368;48.698;9.116;2023-12-20T05:42:35;0.60;;;0.50;;
769;SDS011;368;48.698;9.116;2023-12-20T05:45:02;0.60;;;0.60;;
769;SDS011;368;48.698;9.116;2023-12-20T05:47:30;0.50;;;0.40;;
769;SDS011;368;48.698;9.116;2023-12-20T05:49:57;1.30;;;0.63;;
769;SDS011;368;48.698;9.116;2023-12-20T05:52:24;0.80;;;0.80;;
769;SDS011;368;48.698;9.116;2023-12-20T05:54:50;0.50;;;0.50;;
769;SDS011;368;48.698;9.116;2023-12-20T05:57:17;0.90;;;0.57;;
769;SDS011;368;48.698;9.116;2023-12-20T05:59:44;0.70;;;0.43;;
769;SDS011;368;48.698;9.116;2023-12-20T06:02:11;0.80;;;0.60;;
769;SDS011;368;48.698;9.116;2023-12-20T06:04:39;0.40;;;0.37;;
769;SDS011;368;48.698;9.116;2023-12-20T06:07:08;0.67;;;0.53;;
769;SDS011;368;48.698;9.116;2023-12-20T06:09:37;0.80;;;0.80;;
769;SDS011;368;48.698;9.116;2023-12-20T06:12:04;1.43;;;0.83;;
769;SDS011;368;48.698;9.116;2023-12-20T06:14:33;0.40;;;0.40;;
769;SDS011;368;48.698;9.116;2023-12-20T06:17:00;0.40;;;0.40;;
769;SDS011;368;48.698;9.116;2023-12-20T06:19:27;1.23;;;0.70;;
769;SDS011;368;48.698;9.116;2023-12-20T06:21:56;1.20;;;0.67;;
769;SDS011;368;48.698;9.116;2023-12-20T06:24:22;13.67;;;7.17;;
769;SDS011;368;48.698;9.116;2023-12-20T06:26:52;6.57;;;4.40;;
769;SDS011;368;48.698;9.116;2023-12-20T06:29:19;6.80;;;4.07;;
769;SDS011;368;48.698;9.116;2023-12-20T06:31:46;1.70;;;1.57;;
769;SDS011;368;48.698;9.116;2023-12-20T06:34:13;2.20;;;2.10;;
769;SDS011;368;48.698;9.116;2023-12-20T06:36:40;2.47;;;2.37;;
769;SDS011;368;48.698;9.116;2023-12-20T06:39:08;0.83;;;0.83;;
769;SDS011;368;48.698;9.116;2023-12-20T06:41:37;0.90;;;0.90;;
769;SDS011;368;48.698;9.116;2023-12-20T06:44:04;1.40;;;1.00;;
769;SDS011;368;48.698;9.116;2023-12-20T06:46:31;0.40;;;0.40;;
769;SDS011;368;48.698;9.116;2023-12-20T06:48:57;0.67;;;0.60;;
769;SDS011;368;48.698;9.116;2023-12-20T06:51:24;3.53;;;1.00;;
769;SDS011;368;48.698;9.116;2023-12-20T06:53:51;0.93;;;0.93;;
769;SDS011;368;48.698;9.116;2023-12-20T06:56:19;1.03;;;1.03;;
769;SDS011;368;48.698;9.116;2023-12-20T06:58:46;1.30;;;1.20;;
769;SDS011;368;48.698;9.116;2023-12-20T07:01:13;1.20;;;0.87;;
769;SDS011;368;48.698;9.116;2023-12-20T07:03:40;0.70;;;0.70;;
769;SDS011;368;48.698;9.116;2023-12-20T07:06:07;0.90;;;0.90;;
769;SDS011;368;48.698;9.116;2023-12-20T07:08:34;2.67;;;0.90;;
769;SDS011;368;48.698;9.116;2023-12-20T07:11:01;0.83;;;0.60;;
769;SDS011;368;48.698;9.116;2023-12-20T07:13:29;6.03;;;3.10;;
769;SDS011;368;48.698;9.116;2023-12-20T07:15:56;1.20;;;1.10;;
769;SDS011;368;48.698;9.116;2023-12-20T07:18:23;3.77;;;1.70;;
769;SDS011;368;48.698;9.116;2023-12-20T07:20:49;3.40;;;1.20;;
769;SDS011;368;48.698;9.116;2023-12-20T07:23:15;1.87;;;1.53;;
769;SDS011;368;48.698;9.116;2023-12-20T07:25:42;1.50;;;1.40;;
769;SDS011;368;48.698;9.116;2023-12-20T07:28:09;1.40;;;1.30;;
769;SDS011;368;48.698;9.116;2023-12-20T07:30:37;1.80;;;1.03;;
769;SDS011;368;48.698;9.116;2023-12-20T07:33:04;1.00;;;1.00;;
769;SDS011;368;48.698;9.116;2023-12-20T07:35:33;1.03;;;0.90;;
769;SDS011;368;48.698;9.116;2023-12-20T07:37:59;1.00;;;1.00;;
769;SDS011;368;48.698;9.116;2023-12-20T07:40:27;1.90;;;1.10;;
769;SDS011;368;48.698;9.116;2023-12-20T07:42:54;0.90;;;0.90;;
769;SDS011;368;48.698;9.116;2023-12-20T07:45:21;2.47;;;1.13;;
769;SDS011;368;48.698;9.116;2023-12-20T07:47:49;2.43;;;2.23;;
769;SDS011;368;48.698;9.116;2023-12-20T07:50:16;1.77;;;1.67;;
769;SDS011;368;48.698;9.116;2023-12-20T07:52:43;1.90;;;1.70;;
769;SDS011;368;48.698;9.116;2023-12-20T07:55:10;2.47;;;2.27;;
769;SDS011;368;48.698;9.116;2023-12-20T07:57:37;3.77;;;3.00;;
769;SDS011;368;48.698;9.116;2023-12-20T08:00:04;2.87;;;2.67;;
769;SDS011;368;48.698;9.116;2023-12-20T08:02:32;3.30;;;3.00;;
769;SDS011;368;48.698;9.116;2023-12-20T08:05:00;5.17;;;2.60;;
769;SDS011;368;48.698;9.116;2023-12-20T08:07:27;4.83;;;3.27;;
769;SDS011;368;48.698;9.116;2023-12-20T08:09:53;4.03;;;2.87;;
769;SDS011;368;48.698;9.116;2023-12-20T08:12:21;3.40;;;2.80;;
769;SDS011;368;48.698;9.116;2023-12-20T08:14:48;3.50;;;2.40;;
769;SDS011;368;48.698;9.116;2023-12-20T08:17:15;3.17;;;2.50;;
769;SDS011;368;48.698;9.116;2023-12-20T08:19:43;3.37;;;3.07;;
769;SDS011;368;48.698;9.116;2023-12-20T08:22:12;3.60;;;3.30;;
769;SDS011;368;48.698;9.116;2023-12-20T08:24:38;4.67;;;2.87;;
769;SDS011;368;48.698;9.116;2023-12-20T08:27:05;4.50;;;4.10;;
769;SDS011;368;48.698;9.116;2023-12-20T08:29:32;3.60;;;3.30;;
769;SDS011;368;48.698;9.116;2023-12-20T08:31:59;3.70;;;3.30;;
769;SDS011;368;48.698;9.116;2023-12-20T08:34:26;3.47;;;3.10;;
769;SDS011;368;48.698;9.116;2023-12-20T08:36:53;5.03;;;3.73;;
769;SDS011;368;48.698;9.116;2023-12-20T08:39:21;4.80;;;3.03;;
769;SDS011;368;48.698;9.116;2023-12-20T08:41:48;3.50;;;3.20;;
769;SDS011;368;48.698;9.116;2023-12-20T08:44:15;3.80;;;3.50;;
769;SDS011;368;48.698;9.116;2023-12-20T08:46:43;4.17;;;3.80;;
769;SDS011;368;48.698;9.116;2023-12-20T08:49:13;3.40;;;3.10;;
769;SDS011;368;48.698;9.116;2023-12-20T08:51:40;3.90;;;3.10;;
769;SDS011;368;48.698;9.116;2023-12-20T08:54:07;5.87;;;3.43;;
769;SDS011;368;48.698;9.116;2023-12-20T08:56:35;4.60;;;4.00;;
769;SDS011;368;48.698;9.116;2023-12-20T08:59:02;4.30;;;3.57;;
769;SDS011;368;48.698;9.116;2023-12-20T09:01:28;4.23;;;3.90;;
769;SDS011;368;48.698;9.116;2023-12-20T09:03:55;3.70;;;3.40;;
769;SDS011;368;48.698;9.116;2023-12-20T09:06:22;3.30;;;3.10;;
769;SDS011;368;48.698;9.116;2023-12-20T09:08:49;5.23;;;3.53;;
769;SDS011;368;48.698;9.116;2023-12-20T09:11:15;4.13;;;2.80;;
769;SDS011;368;48.698;9.116;2023-12-20T09:13:44;5.37;;;3.00;;
769;SDS011;368;48.698;9.116;2023-12-20T09:16:11;4.10;;;3.00;;
769;SDS011;368;48.698;9.116;2023-12-20T09:18:38;3.33;;;2.80;;
769;SDS011;368;48.698;9.116;2023-12-20T09:21:05;3.33;;;2.83;;
769;SDS011;368;48.698;9.116;2023-12-20T09:23:32;4.60;;;2.60;;
769;SDS011;368;48.698;9.116;2023-12-20T09:25:58;5.20;;;2.00;;
769;SDS011;368;48.698;9.116;2023-12-20T09:28:25;4.03;;;2.10;;
769;SDS011;368;48.698;9.116;2023-12-20T09:30:53;4.13;;;2.17;;
769;SDS011;368;48.698;9.116;2023-12-20T09:33:20;5.20;;;2.30;;
769;SDS011;368;48.698;9.116;2023-12-20T09:35:47;3.00;;;1.90;;
769;SDS011;368;48.698;9.116;2023-12-20T09:38:14;3.37;;;2.30;;
769;SDS011;368;48.698;9.116;2023-12-20T09:40:42;10.50;;;2.90;;
769;SDS011;368;48.698;9.116;2023-12-20T09:43:10;2.87;;;1.70;;
769;SDS011;368;48.698;9.116;2023-12-20T09:45:40;7.00;;;2.37;;
769;SDS011;368;48.698;9.116;2023-12-20T09:48:09;4.50;;;2.30;;
769;SDS011;368;48.698;9.116;2023-12-20T09:50:37;3.63;;;2.30;;
769;SDS011;368;48.698;9.116;2023-12-20T09:53:04;3.87;;;1.90;;
769;SDS011;368;48.698;9.116;2023-12-20T09:55:34;3.10;;;2.47;;
769;SDS011;368;48.698;9.116;2023-12-20T09:58:02;3.37;;;1.90;;
769;SDS011;368;48.698;9.116;2023-12-20T10:00:29;5.13;;;3.03;;
769;SDS011;368;48.698;9.116;2023-12-20T10:02:57;4.70;;;2.13;;
769;SDS011;368;48.698;9.116;2023-12-20T10:05:27;4.00;;;1.87;;
769;SDS011;368;48.698;9.116;2023-12-20T10:07:55;3.63;;;1.87;;
769;SDS011;368;48.698;9.116;2023-12-20T10:10:22;4.00;;;2.10;;
769;SDS011;368;48.698;9.116;2023-12-20T10:15:32;2.70;;;1.70;;
769;SDS011;368;48.698;9.116;2023-12-20T10:17:59;3.23;;;1.30;;
769;SDS011;368;48.698;9.116;2023-12-20T10:20:28;4.10;;;1.57;;
769;SDS011;368;48.698;9.116;2023-12-20T10:22:55;3.20;;;2.07;;
769;SDS011;368;48.698;9.116;2023-12-20T10:25:22;6.63;;;1.60;;
769;SDS011;368;48.698;9.116;2023-12-20T10:27:49;3.07;;;1.60;;
769;SDS011;368;48.698;9.116;2023-12-20T10:30:34;2.73;;;1.37;;
769;SDS011;368;48.698;9.116;2023-12-20T10:33:00;3.90;;;2.10;;
769;SDS011;368;48.698;9.116;2023-12-20T10:35:29;2.90;;;1.50;;
769;SDS011;368;48.698;9.116;2023-12-20T10:37:56;7.97;;;1.60;;
769;SDS011;368;48.698;9.116;2023-12-20T10:40:23;2.10;;;1.30;;
769;SDS011;368;48.698;9.116;2023-12-20T10:42:52;1.77;;;1.50;;
769;SDS011;368;48.698;9.116;2023-12-20T10:45:20;2.60;;;1.27;;
769;SDS011;368;48.698;9.116;2023-12-20T10:47:48;2.50;;;1.80;;
769;SDS011;368;48.698;9.116;2023-12-20T10:50:17;6.27;;;2.63;;
769;SDS011;368;48.698;9.116;2023-12-20T10:52:46;3.50;;;1.50;;
769;SDS011;368;48.698;9.116;2023-12-20T10:55:13;3.87;;;2.10;;
769;SDS011;368;48.698;9.116;2023-12-20T10:57:40;6.70;;;1.90;;
769;SDS011;368;48.698;9.116;2023-12-20T11:00:10;2.60;;;1.40;;
769;SDS011;368;48.698;9.116;2023-12-20T11:02:40;3.07;;;1.77;;
769;SDS011;368;48.698;9.116;2023-12-20T11:05:10;1.90;;;1.30;;
769;SDS011;368;48.698;9.116;2023-12-20T11:07:50;4.70;;;2.73;;
769;SDS011;368;48.698;9.116;2023-12-20T11:10:23;6.33;;;1.63;;
769;SDS011;368;48.698;9.116;2023-12-20T11:12:57;8.27;;;1.80;;
769;SDS011;368;48.698;9.116;2023-12-20T11:15:29;5.90;;;3.60;;
769;SDS011;368;48.698;9.116;2023-12-20T11:17:56;6.77;;;4.90;;
769;SDS011;368;48.698;9.116;2023-12-20T11:20:25;3.50;;;2.37;;
769;SDS011;368;48.698;9.116;2023-12-20T11:23:03;2.40;;;1.70;;
769;SDS011;368;48.698;9.116;2023-12-20T11:25:34;3.67;;;1.73;;
769;SDS011;368;48.698;9.116;2023-12-20T11:28:12;2.97;;;1.33;;
769;SDS011;368;48.698;9.116;2023-12-20T11:30:42;2.43;;;1.70;;
769;SDS011;368;48.698;9.116;2023-12-20T11:33:12;6.80;;;1.93;;
769;SDS011;368;48.698;9.116;2023-12-20T11:35:40;2.63;;;1.27;;
769;SDS011;368;48.698;9.116;2023-12-20T11:38:08;2.97;;;1.50;;
769;SDS011;368;48.698;9.116;2023-12-20T11:40:36;1.90;;;1.47;;
769;SDS011;368;48.698;9.116;2023-12-20T11:43:03;2.07;;;1.40;;
769;SDS011;368;48.698;9.116;2023-12-20T11:45:30;3.93;;;2.20;;
769;SDS011;368;48.698;9.116;2023-12-20T11:47:57;3.53;;;2.63;;
769;SDS011;368;48.698;9.116;2023-12-20T11:50:24;2.80;;;1.50;;
769;SDS011;368;48.698;9.116;2023-12-20T11:52:51;2.27;;;1.30;;
769;SDS011;368;48.698;9.116;2023-12-20T11:55:20;4.30;;;1.57;;
769;SDS011;368;48.698;9.116;2023-12-20T11:57:49;2.10;;;1.40;;
769;SDS011;368;48.698;9.116;2023-12-20T12:00:16;4.57;;;2.10;;
769;SDS011;368;48.698;9.116;2023-12-20T12:02:54;3.70;;;1.57;;
769;SDS011;368;48.698;9.116;2023-12-20T12:05:22;2.80;;;1.80;;
769;SDS011;368;48.698;9.116;2023-12-20T12:07:49;3.43;;;1.33;;
769;SDS011;368;48.698;9.116;2023-12-20T12:10:16;5.07;;;1.67;;
769;SDS011;368;48.698;9.116;2023-12-20T12:12:44;4.63;;;1.53;;
769;SDS011;368;48.698;9.116;2023-12-20T12:15:11;3.27;;;1.70;;
769;SDS011;368;48.698;9.116;2023-12-20T12:17:37;5.13;;;3.33;;
769;SDS011;368;48.698;9.116;2023-12-20T12:20:05;6.10;;;1.60;;
769;SDS011;368;48.698;9.116;2023-12-20T12:22:33;2.60;;;2.13;;
769;SDS011;368;48.698;9.116;2023-12-20T12:25:08;4.60;;;1.70;;
769;SDS011;368;48.698;9.116;2023-12-20T12:27:37;2.83;;;1.47;;
769;SDS011;368;48.698;9.116;2023-12-20T12:30:08;2.20;;;1.80;;
769;SDS011;368;48.698;9.116;2023-12-20T12:32:38;4.10;;;1.73;;
769;SDS011;368;48.698;9.116;2023-12-20T12:35:06;4.20;;;1.57;;
769;SDS011;368;48.698;9.116;2023-12-20T12:37:34;2.63;;;1.87;;
769;SDS011;368;48.698;9.116;2023-12-20T12:40:03;3.07;;;2.03;;
769;SDS011;368;48.698;9.116;2023-12-20T12:42:31;3.10;;;1.60;;
769;SDS011;368;48.698;9.116;2023-12-20T12:44:58;3.70;;;2.50;;
769;SDS011;368;48.698;9.116;2023-12-20T12:47:26;2.57;;;1.30;;
769;SDS011;368;48.698;9.116;2023-12-20T12:49:53;2.40;;;1.37;;
769;SDS011;368;48.698;9.116;2023-12-20T12:52:20;1.70;;;1.60;;
769;SDS011;368;48.698;9.116;2023-12-20T12:54:46;3.73;;;1.60;;
769;SDS011;368;48.698;9.116;2023-12-20T12:57:13;3.77;;;1.27;;
769;SDS011;368;48.698;9.116;2023-12-20T12:59:40;3.50;;;1.50;;
769;SDS011;368;48.698;9.116;2023-12-20T13:02:07;10.80;;;5.90;;
769;SDS011;368;48.698;9.116;2023-12-20T13:04:35;5.20;;;2.97;;
769;SDS011;368;48.698;9.116;2023-12-20T13:07:02;4.50;;;1.50;;
769;SDS011;368;48.698;9.116;2023-12-20T13:09:29;4.00;;;1.47;;
769;SDS011;368;48.698;9.116;2023-12-20T13:11:57;4.17;;;1.80;;
769;SDS011;368;48.698;9.116;2023-12-20T13:14:24;6.03;;;1.83;;
769;SDS011;368;48.698;9.116;2023-12-20T13:16:51;2.50;;;1.50;;
769;SDS011;368;48.698;9.116;2023-12-20T13:19:17;4.67;;;1.80;;
769;SDS011;368;48.698;9.116;2023-12-20T13:21:45;4.57;;;1.80;;
769;SDS011;368;48.698;9.116;2023-12-20T13:24:13;4.70;;;1.47;;
769;SDS011;368;48.698;9.116;2023-12-20T13:26:39;3.03;;;1.20;;
769;SDS011;368;48.698;9.116;2023-12-20T13:29:06;3.50;;;1.57;;
769;SDS011;368;48.698;9.116;2023-12-20T13:31:33;3.87;;;1.23;;
769;SDS011;368;48.698;9.116;2023-12-20T13:34:01;7.70;;;2.03;;
769;SDS011;368;48.698;9.116;2023-12-20T13:36:28;4.80;;;1.53;;
769;SDS011;368;48.698;9.116;2023-12-20T13:38:56;4.60;;;1.43;;
769;SDS011;368;48.698;9.116;2023-12-20T13:41:23;5.97;;;1.00;;
769;SDS011;368;48.698;9.116;2023-12-20T13:43:50;2.70;;;1.13;;
769;SDS011;368;48.698;9.116;2023-12-20T13:46:16;4.87;;;1.80;;
769;SDS011;368;48.698;9.116;2023-12-20T13:48:43;2.87;;;1.80;;
769;SDS011;368;48.698;9.116;2023-12-20T13:51:10;2.20;;;1.43;;
769;SDS011;368;48.698;9.116;2023-12-20T13:53:36;3.07;;;1.57;;
769;SDS011;368;48.698;9.116;2023-12-20T13:56:06;2.60;;;1.60;;
769;SDS011;368;48.698;9.116;2023-12-20T13:58:33;3.33;;;1.80;;
769;SDS011;368;48.698;9.116;2023-12-20T14:00:59;3.77;;;1.23;;
769;SDS011;368;48.698;9.116;2023-12-20T14:03:26;3.43;;;1.43;;
769;SDS011;368;48.698;9.116;2023-12-20T14:05:53;2.00;;;1.20;;
769;SDS011;368;48.698;9.116;2023-12-20T14:08:20;5.40;;;1.93;;
769;SDS011;368;48.698;9.116;2023-12-20T14:10:47;6.57;;;2.50;;
769;SDS011;368;48.698;9.116;2023-12-20T14:13:15;2.37;;;1.50;;
769;SDS011;368;48.698;9.116;2023-12-20T14:15:42;6.47;;;1.37;;
769;SDS011;368;48.698;9.116;2023-12-20T14:18:09;4.40;;;3.67;;
769;SDS011;368;48.698;9.116;2023-12-20T14:20:37;4.50;;;1.37;;
769;SDS011;368;48.698;9.116;2023-12-20T14:23:04;8.00;;;2.23;;
769;SDS011;368;48.698;9.116;2023-12-20T14:25:32;2.60;;;1.00;;
769;SDS011;368;48.698;9.116;2023-12-20T14:27:58;2.20;;;1.40;;
769;SDS011;368;48.698;9.116;2023-12-20T14:30:27;4.30;;;1.77;;
769;SDS011;368;48.698;9.116;2023-12-20T14:32:53;2.87;;;1.43;;
769;SDS011;368;48.698;9.116;2023-12-20T14:35:20;3.47;;;1.53;;
769;SDS011;368;48.698;9.116;2023-12-20T14:37:47;4.43;;;1.37;;
769;SDS011;368;48.698;9.116;2023-12-20T14:40:15;4.33;;;1.30;;
769;SDS011;368;48.698;9.116;2023-12-20T14:42:42;1.73;;;0.87;;
769;SDS011;368;48.698;9.116;2023-12-20T14:45:09;3.70;;;1.57;;
769;SDS011;368;48.698;9.116;2023-12-20T14:47:37;2.13;;;1.90;;
769;SDS011;368;48.698;9.116;2023-12-20T14:50:04;4.43;;;1.37;;
769;SDS011;368;48.698;9.116;2023-12-20T14:52:32;7.00;;;2.87;;
769;SDS011;368;48.698;9.116;2023-12-20T14:54:59;2.40;;;1.40;;
769;SDS011;368;48.698;9.116;2023-12-20T14:57:27;3.10;;;1.77;;
769;SDS011;368;48.698;9.116;2023-12-20T14:59:54;1.73;;;1.63;;
769;SDS011;368;48.698;9.116;2023-12-20T15:02:21;2.77;;;1.17;;
769;SDS011;368;48.698;9.116;2023-12-20T15:04:49;3.87;;;1.03;;
769;SDS011;368;48.698;9.116;2023-12-20T15:07:16;6.97;;;1.90;;
769;SDS011;368;48.698;9.116;2023-12-20T15:09:43;6.47;;;1.60;;
769;SDS011;368;48.698;9.116;2023-12-20T15:12:11;7.00;;;1.90;;
769;SDS011;368;48.698;9.116;2023-12-20T15:14:38;2.73;;;2.50;;
769;SDS011;368;48.698;9.116;2023-12-20T15:17:05;2.07;;;1.33;;
769;SDS011;368;48.698;9.116;2023-12-20T15:19:32;5.10;;;1.60;;
769;SDS011;368;48.698;9.116;2023-12-20T15:22:00;4.23;;;2.17;;
769;SDS011;368;48.698;9.116;2023-12-20T15:24:28;3.40;;;2.03;;
769;SDS011;368;48.698;9.116;2023-12-20T15:27:03;2.50;;;2.10;;
769;SDS011;368;48.698;9.116;2023-12-20T15:29:30;5.93;;;2.50;;
769;SDS011;368;48.698;9.116;2023-12-20T15:31:57;7.10;;;3.40;;
769;SDS011;368;48.698;9.116;2023-12-20T15:34:24;6.60;;;2.20;;
769;SDS011;368;48.698;9.116;2023-12-20T15:36:50;5.50;;;3.27;;
769;SDS011;368;48.698;9.116;2023-12-20T15:39:19;4.03;;;1.87;;
769;SDS011;368;48.698;9.116;2023-12-20T15:41:45;4.27;;;2.00;;
769;SDS011;368;48.698;9.116;2023-12-20T15:44:12;3.53;;;2.07;;
769;SDS011;368;48.698;9.116;2023-12-20T15:46:40;3.00;;;2.30;;
769;SDS011;368;48.698;9.116;2023-12-20T15:49:07;2.87;;;1.50;;